createdAt,value
2022-08-10T00:01:51.338Z,17.90
2022-08-10T00:04:21.329Z,18.00
2022-08-10T00:06:51.002Z,18.00
2022-08-10T00:09:20.632Z,18.00
2022-08-10T00:11:48.716Z,17.90
2022-08-10T00:14:16.908Z,17.70
2022-08-10T00:16:45.185Z,17.40
2022-08-10T00:19:13.283Z,17.30
2022-08-10T00:21:47.095Z,17.20
2022-08-10T00:24:15.507Z,17.30
2022-08-10T00:27:57.933Z,17.40
2022-08-10T00:29:33.369Z,17.40
2022-08-10T00:32:01.624Z,17.50
2022-08-10T00:34:31.322Z,17.40
2022-08-10T00:37:00.365Z,17.40
2022-08-10T00:39:29.595Z,17.40
2022-08-10T00:42:02.304Z,17.10
2022-08-10T00:44:37.426Z,17.20
2022-08-10T00:47:06.096Z,17.20
2022-08-10T00:49:34.492Z,17.20
2022-08-10T00:52:03.477Z,17.10
2022-08-10T00:54:32.833Z,17.00
2022-08-10T00:57:16.914Z,16.90
2022-08-10T00:59:59.299Z,17.00
2022-08-10T01:02:30.801Z,16.90
2022-08-10T01:05:02.617Z,16.80
2022-08-10T01:07:49.797Z,16.70
2022-08-10T01:10:33.048Z,16.70
2022-08-10T01:13:13.208Z,16.80
2022-08-10T01:15:54.928Z,16.60
2022-08-10T01:18:38.231Z,16.70
2022-08-10T01:21:53.850Z,16.60
2022-08-10T01:24:52.236Z,16.50
2022-08-10T01:27:29.916Z,16.40
2022-08-10T01:30:04.374Z,16.40
2022-08-10T01:32:48.414Z,16.40
2022-08-10T01:35:25.454Z,16.40
2022-08-10T01:38:04.826Z,16.30
2022-08-10T01:40:37.965Z,16.30
2022-08-10T01:43:10.982Z,16.30
2022-08-10T01:45:46.563Z,16.40
2022-08-10T01:48:28.648Z,16.40
2022-08-10T01:51:05.592Z,16.30
2022-08-10T01:53:41.543Z,16.40
2022-08-10T01:56:14.148Z,16.40
2022-08-10T01:58:44.815Z,16.40
2022-08-10T02:01:19.881Z,16.20
2022-08-10T02:04:01.649Z,16.10
2022-08-10T02:06:39.351Z,16.10
2022-08-10T02:09:09.795Z,16.00
2022-08-10T02:12:05.403Z,16.00
2022-08-10T02:14:34.295Z,16.00
2022-08-10T02:17:58.326Z,15.90
2022-08-10T02:20:04.525Z,15.90
2022-08-10T02:22:45.734Z,15.90
2022-08-10T02:25:39.916Z,15.90
2022-08-10T02:28:08.005Z,15.80
2022-08-10T02:30:39.004Z,15.70
2022-08-10T02:33:10.725Z,15.70
2022-08-10T02:35:54.620Z,15.70
2022-08-10T02:38:57.582Z,15.80
2022-08-10T02:45:08.182Z,15.70
2022-08-10T02:45:21.567Z,15.60
2022-08-10T02:47:27.329Z,15.50
2022-08-10T02:50:04.256Z,15.60
2022-08-10T02:52:41.891Z,15.50
2022-08-10T02:55:19.414Z,15.40
2022-08-10T02:58:16.732Z,15.30
2022-08-10T03:00:50.820Z,15.20
2022-08-10T03:03:23.224Z,15.10
2022-08-10T03:05:57.731Z,15.10
2022-08-10T03:08:33.075Z,15.00
2022-08-10T03:11:05.739Z,14.70
2022-08-10T03:13:36.640Z,14.60
2022-08-10T03:16:06.317Z,14.60
2022-08-10T03:18:35.504Z,14.60
2022-08-10T03:21:10.097Z,14.60
2022-08-10T03:23:42.842Z,14.60
2022-08-10T03:26:12.790Z,14.60
2022-08-10T03:28:41.650Z,14.70
2022-08-10T03:31:10.142Z,14.70
2022-08-10T03:33:42.108Z,14.80
2022-08-10T03:36:41.828Z,14.70
2022-08-10T03:39:00.333Z,14.60
2022-08-10T03:41:35.336Z,14.60
2022-08-10T03:44:06.668Z,14.60
2022-08-10T03:46:39.668Z,14.60
2022-08-10T03:49:08.728Z,14.70
2022-08-10T03:51:39.135Z,14.80
2022-08-10T03:54:07.936Z,14.80
2022-08-10T03:56:39.190Z,14.90
2022-08-10T03:59:10.190Z,14.90
2022-08-10T04:02:43.691Z,14.90
2022-08-10T04:04:27.126Z,14.70
2022-08-10T04:06:59.040Z,14.60
2022-08-10T04:09:42.905Z,14.60
2022-08-10T04:12:17.481Z,14.30
2022-08-10T04:14:49.792Z,14.20
2022-08-10T04:18:01.125Z,14.10
2022-08-10T04:20:29.953Z,14.10
2022-08-10T04:23:10.011Z,14.10
2022-08-10T04:25:41.006Z,14.20
2022-08-10T04:28:10.091Z,14.20
2022-08-10T04:30:39.353Z,14.20
2022-08-10T04:33:11.944Z,14.30
2022-08-10T04:35:40.790Z,14.30
2022-08-10T04:38:12.803Z,14.30
2022-08-10T04:40:41.442Z,14.40
2022-08-10T04:43:13.496Z,14.40
2022-08-10T04:45:50.566Z,14.50
2022-08-10T04:48:43.455Z,14.60
2022-08-10T04:51:17.159Z,14.70
2022-08-10T04:54:06.028Z,14.70
2022-08-10T04:56:37.384Z,14.60
2022-08-10T04:59:07.377Z,14.40
2022-08-10T05:02:22.035Z,14.40
2022-08-10T05:04:36.884Z,14.40
2022-08-10T05:07:16.915Z,14.50
2022-08-10T05:10:01.227Z,14.50
2022-08-10T05:12:36.157Z,14.60
2022-08-10T05:15:09.957Z,14.60
2022-08-10T05:17:39.150Z,14.60
2022-08-10T05:20:11.136Z,14.60
2022-08-10T05:22:41.917Z,14.40
2022-08-10T05:25:14.177Z,14.60
2022-08-10T05:27:43.809Z,14.50
2022-08-10T05:30:15.039Z,14.60
2022-08-10T05:32:58.269Z,14.70
2022-08-10T05:35:55.130Z,14.70
2022-08-10T05:38:23.923Z,14.70
2022-08-10T05:40:53.454Z,14.80
2022-08-10T05:43:22.907Z,14.90
2022-08-10T05:46:18.233Z,14.90
2022-08-10T05:48:59.061Z,15.00
2022-08-10T05:51:30.654Z,15.10
2022-08-10T05:54:04.814Z,15.20
2022-08-10T05:56:54.280Z,15.20
2022-08-10T06:00:31.076Z,15.40
2022-08-10T06:02:34.012Z,15.30
2022-08-10T06:05:09.061Z,15.30
2022-08-10T06:07:42.254Z,15.50
2022-08-10T06:10:19.658Z,15.60
2022-08-10T06:13:27.035Z,15.70
2022-08-10T06:16:08.455Z,15.80
2022-08-10T06:18:37.759Z,15.90
2022-08-10T06:21:06.824Z,15.90
2022-08-10T06:23:37.220Z,16.00
2022-08-10T06:26:08.946Z,16.10
2022-08-10T06:29:02.006Z,16.20
2022-08-10T06:31:48.210Z,16.40
2022-08-10T06:34:23.797Z,16.60
2022-08-10T06:36:54.055Z,16.80
2022-08-10T06:39:33.505Z,16.90
2022-08-10T06:42:16.035Z,17.00
2022-08-10T06:44:58.699Z,17.10
2022-08-10T06:47:34.671Z,17.30
2022-08-10T06:50:11.862Z,17.40
2022-08-10T06:52:41.611Z,17.50
2022-08-10T06:55:16.694Z,17.60
2022-08-10T06:57:59.683Z,17.70
2022-08-10T07:00:34.347Z,17.80
2022-08-10T07:03:09.591Z,18.00
2022-08-10T07:05:45.905Z,18.20
2022-08-10T07:08:20.404Z,18.30
2022-08-10T07:10:50.711Z,18.50
2022-08-10T07:14:16.018Z,18.70
2022-08-10T07:16:14.312Z,18.80
2022-08-10T07:18:45.386Z,19.00
2022-08-10T07:21:15.860Z,19.20
2022-08-10T07:23:56.905Z,19.30
2022-08-10T07:26:31.223Z,19.50
2022-08-10T07:29:01.180Z,19.70
2022-08-10T07:31:55.932Z,19.80
2022-08-10T07:34:29.867Z,20.00
2022-08-10T07:37:04.927Z,20.10
2022-08-10T07:40:03.754Z,20.20
2022-08-10T07:42:31.290Z,20.40
2022-08-10T07:45:00.591Z,20.60
2022-08-10T07:47:53.182Z,20.60
2022-08-10T07:50:26.294Z,20.70
2022-08-10T07:53:01.080Z,20.90
2022-08-10T07:56:04.465Z,21.10
2022-08-10T07:58:22.535Z,21.30
2022-08-10T08:00:53.894Z,21.50
2022-08-10T08:03:28.158Z,21.70
2022-08-10T08:06:05.263Z,21.90
2022-08-10T08:08:35.167Z,22.10
2022-08-10T08:11:04.321Z,22.30
2022-08-10T08:13:34.868Z,22.50
2022-08-10T08:16:18.225Z,22.70
2022-08-10T08:19:24.069Z,22.90
2022-08-10T08:24:04.781Z,23.10
2022-08-10T08:24:38.717Z,23.40
2022-08-10T08:27:08.011Z,23.60
2022-08-10T08:29:40.045Z,23.70
2022-08-10T08:32:09.375Z,23.90
2022-08-10T08:34:42.628Z,24.00
2022-08-10T08:37:13.248Z,24.20
2022-08-10T08:40:02.737Z,24.40
2022-08-10T08:43:12.779Z,24.60
2022-08-10T08:46:02.003Z,24.80
2022-08-10T08:48:59.943Z,25.00
2022-08-10T08:52:07.220Z,25.20
2022-08-10T08:54:49.132Z,25.30
2022-08-10T08:57:50.702Z,25.50
2022-08-10T09:00:34.399Z,25.70
2022-08-10T09:03:30.606Z,25.80
2022-08-10T09:06:17.124Z,25.80
2022-08-10T09:09:17.912Z,25.90
2022-08-10T09:12:06.828Z,26.00
2022-08-10T09:14:45.554Z,26.10
2022-08-10T09:17:25.199Z,26.30
2022-08-10T09:20:00.710Z,26.50
2022-08-10T09:22:39.592Z,26.80
2022-08-10T09:25:18.826Z,27.00
2022-08-10T09:27:50.894Z,26.70
2022-08-10T09:30:29.336Z,26.90
2022-08-10T09:36:20.911Z,27.30
2022-08-10T09:36:26.581Z,27.00
2022-08-10T09:39:12.444Z,27.30
2022-08-10T09:42:14.615Z,27.40
2022-08-10T09:44:57.330Z,27.60
2022-08-10T09:48:00.956Z,27.80
2022-08-10T09:51:28.090Z,28.00
2022-08-10T09:53:47.547Z,28.00
2022-08-10T09:56:29.695Z,27.90
2022-08-10T09:59:56.641Z,27.80
2022-08-10T10:02:19.091Z,27.80
2022-08-10T10:05:05.083Z,27.80
2022-08-10T10:07:35.387Z,27.70
2022-08-10T10:10:11.607Z,27.60
2022-08-10T10:12:51.931Z,27.40
2022-08-10T10:15:35.789Z,27.30
2022-08-10T10:18:32.880Z,27.30
2022-08-10T10:21:09.600Z,27.30
2022-08-10T10:24:20.188Z,27.10
2022-08-10T10:26:57.004Z,26.90
2022-08-10T10:29:58.279Z,26.80
2022-08-10T10:32:44.427Z,26.90
2022-08-10T10:35:24.369Z,26.90
2022-08-10T10:38:10.611Z,27.00
2022-08-10T10:40:49.442Z,27.00
2022-08-10T10:43:41.764Z,27.00
2022-08-10T10:46:29.769Z,27.00
2022-08-10T10:49:12.637Z,27.00
2022-08-10T10:51:52.914Z,27.00
2022-08-10T10:54:37.088Z,27.00
2022-08-10T10:57:14.758Z,27.20
2022-08-10T10:59:57.595Z,27.30
2022-08-10T11:02:47.245Z,27.40
2022-08-10T11:05:28.026Z,27.20
2022-08-10T11:08:01.296Z,27.00
2022-08-10T11:10:46.303Z,27.20
2022-08-10T11:14:26.771Z,27.50
2022-08-10T11:16:28.772Z,27.90
2022-08-10T11:19:08.686Z,28.30
2022-08-10T11:21:51.560Z,28.40
2022-08-10T11:24:48.930Z,28.50
2022-08-10T11:27:34.752Z,28.40
2022-08-10T11:30:09.274Z,28.40
2022-08-10T11:32:54.629Z,28.40
2022-08-10T11:35:37.129Z,28.30
2022-08-10T11:38:31.118Z,28.40
2022-08-10T11:42:05.496Z,28.20
2022-08-10T11:44:10.228Z,28.20
2022-08-10T11:46:53.065Z,28.10
2022-08-10T11:49:32.928Z,28.30
2022-08-10T11:52:10.426Z,28.60
2022-08-10T11:54:47.976Z,28.50
2022-08-10T11:57:19.840Z,28.60
2022-08-10T11:59:58.058Z,28.70
2022-08-10T12:02:33.515Z,29.00
2022-08-10T12:05:09.318Z,29.10
2022-08-10T12:10:07.578Z,29.20
2022-08-10T12:10:40.168Z,29.00
2022-08-10T12:13:13.984Z,29.10
2022-08-10T12:15:49.303Z,29.30
2022-08-10T12:18:27.928Z,29.50
2022-08-10T12:21:03.017Z,29.80
2022-08-10T12:23:43.436Z,30.10
2022-08-10T12:26:19.478Z,30.10
2022-08-10T12:28:58.486Z,30.00
2022-08-10T12:31:33.090Z,29.80
2022-08-10T12:34:19.656Z,29.70
2022-08-10T12:36:58.493Z,29.50
2022-08-10T12:39:30.898Z,29.40
2022-08-10T12:42:10.328Z,29.30
2022-08-10T12:44:51.204Z,29.50
2022-08-10T12:47:31.931Z,29.60
2022-08-10T12:50:29.560Z,29.80
2022-08-10T12:53:12.098Z,30.00
2022-08-10T12:55:42.066Z,30.00
2022-08-10T12:58:57.219Z,30.10
2022-08-10T13:01:16.203Z,30.20
2022-08-10T13:04:22.527Z,30.40
2022-08-10T13:06:43.464Z,30.50
2022-08-10T13:09:13.044Z,30.30
2022-08-10T13:12:38.989Z,30.10
2022-08-10T13:14:49.027Z,29.90
2022-08-10T13:17:32.441Z,29.70
2022-08-10T13:20:19.138Z,29.50
2022-08-10T13:22:50.778Z,29.30
2022-08-10T13:25:29.511Z,29.20
2022-08-10T13:28:03.462Z,28.90
2022-08-10T13:30:54.851Z,28.70
2022-08-10T13:34:41.246Z,28.90
2022-08-10T13:36:23.672Z,29.00
2022-08-10T13:38:55.889Z,29.10
2022-08-10T13:41:29.124Z,29.20
2022-08-10T13:44:01.164Z,29.10
2022-08-10T13:46:32.379Z,29.20
2022-08-10T13:49:04.832Z,29.10
2022-08-10T13:51:57.587Z,29.00
2022-08-10T13:54:36.953Z,29.00
2022-08-10T13:57:07.637Z,28.90
2022-08-10T14:00:37.380Z,28.90
2022-08-10T14:02:33.862Z,28.90
2022-08-10T14:05:04.652Z,28.90
2022-08-10T14:07:39.026Z,29.00
2022-08-10T14:11:02.020Z,29.20
2022-08-10T14:13:13.048Z,29.30
2022-08-10T14:15:44.635Z,29.40
2022-08-10T14:18:14.208Z,29.40
2022-08-10T14:20:44.120Z,29.50
2022-08-10T14:23:14.596Z,29.50
2022-08-10T14:25:53.400Z,29.70
2022-08-10T14:28:27.827Z,29.70
2022-08-10T14:31:02.693Z,29.70
2022-08-10T14:33:34.989Z,29.60
2022-08-10T14:36:15.982Z,29.40
2022-08-10T14:38:56.202Z,29.20
2022-08-10T14:42:01.053Z,29.00
2022-08-10T14:44:21.911Z,28.90
2022-08-10T14:46:58.414Z,28.80
2022-08-10T14:49:59.448Z,28.70
2022-08-10T14:52:26.973Z,28.60
2022-08-10T14:54:58.062Z,28.60
2022-08-10T14:58:16.161Z,28.70
2022-08-10T15:00:33.787Z,28.80
2022-08-10T15:03:58.091Z,28.70
2022-08-10T15:05:59.178Z,28.60
2022-08-10T15:08:36.927Z,28.70
2022-08-10T15:11:06.786Z,28.70
2022-08-10T15:13:35.550Z,28.60
2022-08-10T15:16:13.129Z,28.50
2022-08-10T15:18:58.497Z,28.50
2022-08-10T15:21:42.279Z,28.60
2022-08-10T15:24:37.455Z,28.60
2022-08-10T15:27:10.220Z,28.80
2022-08-10T15:29:57.287Z,28.90
2022-08-10T15:32:54.676Z,28.80
2022-08-10T15:35:46.363Z,28.70
2022-08-10T15:38:22.862Z,28.60
2022-08-10T15:40:54.678Z,28.40
2022-08-10T15:43:27.973Z,28.30
2022-08-10T15:46:15.717Z,28.20
2022-08-10T15:48:49.553Z,28.10
2022-08-10T15:51:28.506Z,28.00
2022-08-10T15:54:12.217Z,28.00
2022-08-10T15:56:45.966Z,27.90
2022-08-10T15:59:20.175Z,28.00
2022-08-10T16:02:04.743Z,28.10
2022-08-10T16:04:50.385Z,28.10
2022-08-10T16:07:45.409Z,28.20
2022-08-10T16:10:25.589Z,28.20
2022-08-10T16:13:01.122Z,28.20
2022-08-10T16:15:33.718Z,28.10
2022-08-10T16:18:10.738Z,28.00
2022-08-10T16:20:53.225Z,28.00
2022-08-10T16:23:29.575Z,28.00
2022-08-10T16:26:14.784Z,28.00
2022-08-10T16:28:48.911Z,27.90
2022-08-10T16:31:25.100Z,27.70
2022-08-10T16:33:58.476Z,27.60
2022-08-10T16:36:38.841Z,27.70
2022-08-10T16:39:08.014Z,27.70
2022-08-10T16:42:03.504Z,27.90
2022-08-10T16:44:41.388Z,27.90
2022-08-10T16:47:10.853Z,28.00
2022-08-10T16:49:41.542Z,28.10
2022-08-10T16:52:11.946Z,28.20
2022-08-10T16:54:42.287Z,28.20
2022-08-10T16:57:15.628Z,28.30
2022-08-10T16:59:45.044Z,28.20
2022-08-10T17:02:18.291Z,28.20
2022-08-10T17:04:50.295Z,28.10
2022-08-10T17:07:25.785Z,28.00
2022-08-10T17:10:07.645Z,27.90
2022-08-10T17:12:41.031Z,27.80
2022-08-10T17:15:11.837Z,27.70
2022-08-10T17:17:49.706Z,27.60
2022-08-10T17:20:30.926Z,27.60
2022-08-10T17:23:06.752Z,27.50
2022-08-10T17:25:48.600Z,27.40
2022-08-10T17:28:34.972Z,27.40
2022-08-10T17:31:26.424Z,27.30
2022-08-10T17:34:11.152Z,27.20
2022-08-10T17:36:41.726Z,27.10
2022-08-10T17:39:16.002Z,27.00
2022-08-10T17:41:52.349Z,27.00
2022-08-10T17:44:22.751Z,26.90
2022-08-10T17:46:52.451Z,26.80
2022-08-10T17:49:21.467Z,26.80
2022-08-10T17:51:54.317Z,26.70
2022-08-10T17:54:30.370Z,26.60
2022-08-10T17:57:02.711Z,26.60
2022-08-10T17:59:36.595Z,26.50
2022-08-10T18:02:09.205Z,26.50
2022-08-10T18:04:42.616Z,26.50
2022-08-10T18:07:13.326Z,26.40
2022-08-10T18:09:49.626Z,26.40
2022-08-10T18:12:32.515Z,26.30
2022-08-10T18:15:12.078Z,26.30
2022-08-10T18:17:50.543Z,26.30
2022-08-10T18:20:27.998Z,26.30
2022-08-10T18:22:58.875Z,26.20
2022-08-10T18:25:33.619Z,26.20
2022-08-10T18:28:05.955Z,26.20
2022-08-10T18:30:45.967Z,26.00
2022-08-10T18:33:16.026Z,26.00
2022-08-10T18:35:46.333Z,26.00
2022-08-10T18:38:16.986Z,25.90
2022-08-10T18:40:53.344Z,25.90
2022-08-10T18:44:06.009Z,25.90
2022-08-10T18:46:25.430Z,25.80
2022-08-10T18:48:58.930Z,25.80
2022-08-10T18:51:34.245Z,25.70
2022-08-10T18:54:34.521Z,25.60
2022-08-10T18:57:33.247Z,25.50
2022-08-10T19:00:11.260Z,25.30
2022-08-10T19:03:00.774Z,25.20
2022-08-10T19:05:48.540Z,25.10
2022-08-10T19:08:49.506Z,25.10
2022-08-10T19:11:40.268Z,25.00
2022-08-10T19:14:17.183Z,25.00
2022-08-10T19:16:58.724Z,25.00
2022-08-10T19:19:41.923Z,25.00
2022-08-10T19:22:22.092Z,25.00
2022-08-10T19:25:03.124Z,24.90
2022-08-10T19:27:57.725Z,24.80
2022-08-10T19:30:46.525Z,24.60
2022-08-10T19:33:28.880Z,24.60
2022-08-10T19:36:13.046Z,24.50
2022-08-10T19:38:50.664Z,24.30
2022-08-10T19:41:32.272Z,24.30
2022-08-10T19:44:11.440Z,24.30
2022-08-10T19:46:47.159Z,24.20
2022-08-10T19:49:31.347Z,24.20
2022-08-10T19:52:22.519Z,24.10
2022-08-10T19:55:01.413Z,23.90
2022-08-10T19:57:38.401Z,23.70
2022-08-10T20:00:18.670Z,23.60
2022-08-10T20:03:01.171Z,23.50
2022-08-10T20:05:34.191Z,23.40
2022-08-10T20:08:19.144Z,23.30
2022-08-10T20:10:59.408Z,23.30
2022-08-10T20:13:38.139Z,23.20
2022-08-10T20:16:15.840Z,23.10
2022-08-10T20:18:52.485Z,23.00
2022-08-10T20:21:28.644Z,22.90
2022-08-10T20:24:10.012Z,22.70
2022-08-10T20:26:47.626Z,22.70
2022-08-10T20:29:57.127Z,22.50
2022-08-10T20:32:18.768Z,22.50
2022-08-10T20:34:51.716Z,22.40
2022-08-10T20:38:02.653Z,22.40
2022-08-10T20:40:25.597Z,22.30
2022-08-10T20:43:20.140Z,22.20
2022-08-10T20:46:08.524Z,22.10
2022-08-10T20:48:45.043Z,22.00
2022-08-10T20:51:21.807Z,21.70
2022-08-10T20:53:55.584Z,21.60
2022-08-10T20:56:36.380Z,21.10
2022-08-10T20:59:33.458Z,21.10
2022-08-10T21:02:28.028Z,21.10
2022-08-10T21:05:06.475Z,21.00
2022-08-10T21:08:01.631Z,20.90
2022-08-10T21:10:49.560Z,20.80
2022-08-10T21:13:41.859Z,20.80
2022-08-10T21:16:37.512Z,20.60
2022-08-10T21:19:52.259Z,20.60
2022-08-10T21:22:31.543Z,20.50
2022-08-10T21:25:05.648Z,20.50
2022-08-10T21:28:16.596Z,20.40
2022-08-10T21:31:21.797Z,20.20
2022-08-10T21:34:12.343Z,20.20
2022-08-10T21:36:50.571Z,20.30
2022-08-10T21:39:42.913Z,20.10
2022-08-10T21:42:46.727Z,20.10
2022-08-10T21:45:59.831Z,20.00
2022-08-10T21:48:59.100Z,19.80
2022-08-10T21:52:02.225Z,20.00
2022-08-10T21:55:03.067Z,20.00
2022-08-10T21:58:06.279Z,20.10
2022-08-10T22:00:57.989Z,19.80
2022-08-10T22:03:44.367Z,19.60
2022-08-10T22:06:33.398Z,19.60
2022-08-10T22:09:26.797Z,19.50
2022-08-10T22:12:31.186Z,19.50
2022-08-10T22:16:03.869Z,19.50
2022-08-10T22:18:53.897Z,19.40
2022-08-10T22:22:02.869Z,19.50
2022-08-10T22:25:16.492Z,19.40
2022-08-10T22:28:07.538Z,19.30
2022-08-10T22:31:31.861Z,19.30
2022-08-10T22:34:33.524Z,19.20
2022-08-10T22:37:42.275Z,19.10
2022-08-10T22:40:35.513Z,19.10
2022-08-10T22:43:35.243Z,19.00
2022-08-10T22:46:32.838Z,19.00
2022-08-10T22:49:00.144Z,19.00
2022-08-10T22:51:50.766Z,18.80
2022-08-10T22:54:46.017Z,18.90
2022-08-10T22:57:35.487Z,18.80
2022-08-10T23:00:18.832Z,18.60
2022-08-10T23:03:06.348Z,18.40
2022-08-10T23:05:39.117Z,18.30
2022-08-10T23:08:29.985Z,18.30
2022-08-10T23:11:06.912Z,18.40
2022-08-10T23:13:41.764Z,18.20
2022-08-10T23:16:37.447Z,18.30
2022-08-10T23:19:14.926Z,18.30
2022-08-10T23:22:03.040Z,18.40
2022-08-10T23:24:36.931Z,18.40
2022-08-10T23:27:12.262Z,18.30
2022-08-10T23:30:09.455Z,18.20
2022-08-10T23:32:38.473Z,18.10
2022-08-10T23:36:30.925Z,18.00
2022-08-10T23:38:02.771Z,17.80
2022-08-10T23:40:31.733Z,17.70
2022-08-10T23:43:03.159Z,17.80
2022-08-10T23:45:53.001Z,17.80
2022-08-10T23:48:24.852Z,17.70
2022-08-10T23:50:58.521Z,17.80
2022-08-10T23:53:32.947Z,17.70
2022-08-10T23:56:08.820Z,17.70
2022-08-10T23:58:44.488Z,17.70
